sensor_id;sensor_type;location;lat;lon;timestamp;temperature;humidity
62862;DHT22;48953;53.110;5.592;2022-07-29T00:00:03;13.90;1.00
62862;DHT22;48953;53.110;5.592;2022-07-29T00:02:29;14.00;1.00
62862;DHT22;48953;53.110;5.592;2022-07-29T00:04:54;13.90;1.00
62862;DHT22;48953;53.110;5.592;2022-07-29T00:07:20;14.00;1.00
62862;DHT22;48953;53.110;5.592;2022-07-29T00:09:46;14.00;1.00
62862;DHT22;48953;53.110;5.592;2022-07-29T00:12:11;14.00;1.00
62862;DHT22;48953;53.110;5.592;2022-07-29T00:14:37;13.90;1.00
62862;DHT22;48953;53.110;5.592;2022-07-29T00:17:02;14.00;1.00
62862;DHT22;48953;53.110;5.592;2022-07-29T00:19:28;14.00;1.00
62862;DHT22;48953;53.110;5.592;2022-07-29T00:21:54;14.00;1.00
62862;DHT22;48953;53.110;5.592;2022-07-29T00:24:19;14.10;1.00
62862;DHT22;48953;53.110;5.592;2022-07-29T00:26:45;14.00;1.00
62862;DHT22;48953;53.110;5.592;2022-07-29T00:29:10;14.00;1.00
62862;DHT22;48953;53.110;5.592;2022-07-29T00:31:36;14.00;1.00
62862;DHT22;48953;53.110;5.592;2022-07-29T00:34:01;14.10;1.00
62862;DHT22;48953;53.110;5.592;2022-07-29T00:36:28;14.10;1.00
62862;DHT22;48953;53.110;5.592;2022-07-29T00:38:53;14.20;1.00
62862;DHT22;48953;53.110;5.592;2022-07-29T00:41:19;14.10;1.00
62862;DHT22;48953;53.110;5.592;2022-07-29T00:43:45;14.20;1.00
62862;DHT22;48953;53.110;5.592;2022-07-29T00:46:11;14.20;1.00
62862;DHT22;48953;53.110;5.592;2022-07-29T00:48:37;14.20;1.00
62862;DHT22;48953;53.110;5.592;2022-07-29T00:51:05;14.20;1.00
62862;DHT22;48953;53.110;5.592;2022-07-29T00:53:31;14.20;1.00
62862;DHT22;48953;53.110;5.592;2022-07-29T00:55:58;14.30;1.00
62862;DHT22;48953;53.110;5.592;2022-07-29T00:58:24;14.20;1.00
62862;DHT22;48953;53.110;5.592;2022-07-29T01:00:52;14.30;1.00
62862;DHT22;48953;53.110;5.592;2022-07-29T01:03:17;14.30;1.00
62862;DHT22;48953;53.110;5.592;2022-07-29T01:05:44;14.30;1.00
62862;DHT22;48953;53.110;5.592;2022-07-29T01:08:12;14.30;1.00
62862;DHT22;48953;53.110;5.592;2022-07-29T01:10:38;14.20;1.00
62862;DHT22;48953;53.110;5.592;2022-07-29T01:13:04;14.30;1.00
62862;DHT22;48953;53.110;5.592;2022-07-29T01:15:30;14.40;1.00
62862;DHT22;48953;53.110;5.592;2022-07-29T01:18:09;14.40;1.00
62862;DHT22;48953;53.110;5.592;2022-07-29T01:26:27;14.40;1.00
62862;DHT22;48953;53.110;5.592;2022-07-29T01:31:47;14.30;1.00
62862;DHT22;48953;53.110;5.592;2022-07-29T01:34:21;14.40;1.00
62862;DHT22;48953;53.110;5.592;2022-07-29T01:36:52;14.40;1.00
62862;DHT22;48953;53.110;5.592;2022-07-29T01:39:32;14.30;1.00
62862;DHT22;48953;53.110;5.592;2022-07-29T01:42:19;14.40;1.00
62862;DHT22;48953;53.110;5.592;2022-07-29T01:47:35;14.40;1.00
62862;DHT22;48953;53.110;5.592;2022-07-29T01:50:05;14.40;1.00
62862;DHT22;48953;53.110;5.592;2022-07-29T01:52:54;14.40;1.00
62862;DHT22;48953;53.110;5.592;2022-07-29T01:55:24;14.40;1.00
62862;DHT22;48953;53.110;5.592;2022-07-29T01:57:49;14.40;1.00
62862;DHT22;48953;53.110;5.592;2022-07-29T02:00:16;14.40;1.00
62862;DHT22;48953;53.110;5.592;2022-07-29T02:02:44;14.40;1.00
62862;DHT22;48953;53.110;5.592;2022-07-29T02:05:13;14.40;1.00
62862;DHT22;48953;53.110;5.592;2022-07-29T02:07:41;14.40;1.00
62862;DHT22;48953;53.110;5.592;2022-07-29T02:10:08;14.40;1.00
62862;DHT22;48953;53.110;5.592;2022-07-29T02:12:35;14.40;1.00
62862;DHT22;48953;53.110;5.592;2022-07-29T02:15:03;14.30;1.00
62862;DHT22;48953;53.110;5.592;2022-07-29T02:17:50;14.40;1.00
62862;DHT22;48953;53.110;5.592;2022-07-29T02:20:17;14.40;1.00
62862;DHT22;48953;53.110;5.592;2022-07-29T02:22:43;14.50;1.00
62862;DHT22;48953;53.110;5.592;2022-07-29T02:25:10;14.50;1.00
62862;DHT22;48953;53.110;5.592;2022-07-29T02:27:37;14.50;1.00
62862;DHT22;48953;53.110;5.592;2022-07-29T02:30:06;14.50;1.00
62862;DHT22;48953;53.110;5.592;2022-07-29T02:32:34;14.50;1.00
62862;DHT22;48953;53.110;5.592;2022-07-29T02:35:01;14.40;1.00
62862;DHT22;48953;53.110;5.592;2022-07-29T02:37:27;14.40;1.00
62862;DHT22;48953;53.110;5.592;2022-07-29T02:39:55;14.40;1.00
62862;DHT22;48953;53.110;5.592;2022-07-29T02:42:22;14.40;1.00
62862;DHT22;48953;53.110;5.592;2022-07-29T02:44:49;14.30;1.00
62862;DHT22;48953;53.110;5.592;2022-07-29T02:47:29;14.20;1.00
62862;DHT22;48953;53.110;5.592;2022-07-29T02:50:12;14.20;1.00
62862;DHT22;48953;53.110;5.592;2022-07-29T02:52:44;14.20;1.00
62862;DHT22;48953;53.110;5.592;2022-07-29T02:55:23;14.20;1.00
62862;DHT22;48953;53.110;5.592;2022-07-29T02:58:03;14.10;1.00
62862;DHT22;48953;53.110;5.592;2022-07-29T03:00:33;14.10;1.00
62862;DHT22;48953;53.110;5.592;2022-07-29T03:03:03;14.10;1.00
62862;DHT22;48953;53.110;5.592;2022-07-29T03:05:29;14.10;1.00
62862;DHT22;48953;53.110;5.592;2022-07-29T03:08:06;14.10;1.00
62862;DHT22;48953;53.110;5.592;2022-07-29T03:10:33;14.10;1.00
62862;DHT22;48953;53.110;5.592;2022-07-29T03:13:00;14.20;1.00
62862;DHT22;48953;53.110;5.592;2022-07-29T03:15:27;14.20;1.00
62862;DHT22;48953;53.110;5.592;2022-07-29T03:17:53;14.20;1.00
62862;DHT22;48953;53.110;5.592;2022-07-29T03:20:19;14.20;1.00
62862;DHT22;48953;53.110;5.592;2022-07-29T03:22:45;14.20;1.00
62862;DHT22;48953;53.110;5.592;2022-07-29T03:25:15;14.20;1.00
62862;DHT22;48953;53.110;5.592;2022-07-29T03:27:42;14.10;1.00
62862;DHT22;48953;53.110;5.592;2022-07-29T03:30:09;14.10;1.00
62862;DHT22;48953;53.110;5.592;2022-07-29T03:32:35;14.10;1.00
62862;DHT22;48953;53.110;5.592;2022-07-29T03:35:01;14.00;1.00
62862;DHT22;48953;53.110;5.592;2022-07-29T03:37:27;14.00;1.00
62862;DHT22;48953;53.110;5.592;2022-07-29T03:39:55;13.90;1.00
62862;DHT22;48953;53.110;5.592;2022-07-29T03:42:24;13.90;1.00
62862;DHT22;48953;53.110;5.592;2022-07-29T03:44:52;13.90;1.00
62862;DHT22;48953;53.110;5.592;2022-07-29T03:47:21;13.90;1.00
62862;DHT22;48953;53.110;5.592;2022-07-29T03:49:49;13.80;1.00
62862;DHT22;48953;53.110;5.592;2022-07-29T03:52:16;13.80;1.00
62862;DHT22;48953;53.110;5.592;2022-07-29T03:54:42;13.80;1.00
62862;DHT22;48953;53.110;5.592;2022-07-29T03:57:09;13.80;1.00
62862;DHT22;48953;53.110;5.592;2022-07-29T03:59:35;13.80;1.00
62862;DHT22;48953;53.110;5.592;2022-07-29T04:02:04;13.80;1.00
62862;DHT22;48953;53.110;5.592;2022-07-29T04:04:33;13.90;1.00
62862;DHT22;48953;53.110;5.592;2022-07-29T04:07:00;13.80;1.00
62862;DHT22;48953;53.110;5.592;2022-07-29T04:09:25;13.80;1.00
62862;DHT22;48953;53.110;5.592;2022-07-29T04:11:51;13.90;1.00
62862;DHT22;48953;53.110;5.592;2022-07-29T04:14:18;13.80;1.00
62862;DHT22;48953;53.110;5.592;2022-07-29T04:16:43;13.90;1.00
62862;DHT22;48953;53.110;5.592;2022-07-29T04:19:09;13.90;1.00
62862;DHT22;48953;53.110;5.592;2022-07-29T04:21:38;14.00;1.00
62862;DHT22;48953;53.110;5.592;2022-07-29T04:24:05;14.00;1.00
62862;DHT22;48953;53.110;5.592;2022-07-29T04:26:30;14.10;1.00
62862;DHT22;48953;53.110;5.592;2022-07-29T04:28:56;14.10;1.00
62862;DHT22;48953;53.110;5.592;2022-07-29T04:31:22;14.10;1.00
62862;DHT22;48953;53.110;5.592;2022-07-29T04:33:47;14.20;1.00
62862;DHT22;48953;53.110;5.592;2022-07-29T04:36:13;14.20;1.00
62862;DHT22;48953;53.110;5.592;2022-07-29T04:38:38;14.30;1.00
62862;DHT22;48953;53.110;5.592;2022-07-29T04:41:04;14.30;1.00
62862;DHT22;48953;53.110;5.592;2022-07-29T04:43:33;14.40;1.00
62862;DHT22;48953;53.110;5.592;2022-07-29T04:45:58;14.40;1.00
62862;DHT22;48953;53.110;5.592;2022-07-29T04:48:25;14.40;1.00
62862;DHT22;48953;53.110;5.592;2022-07-29T04:50:50;14.40;1.00
62862;DHT22;48953;53.110;5.592;2022-07-29T04:53:16;14.50;1.00
62862;DHT22;48953;53.110;5.592;2022-07-29T04:55:41;14.50;1.00
62862;DHT22;48953;53.110;5.592;2022-07-29T04:58:07;14.60;1.00
62862;DHT22;48953;53.110;5.592;2022-07-29T05:00:33;14.60;1.00
62862;DHT22;48953;53.110;5.592;2022-07-29T05:02:58;14.70;1.00
62862;DHT22;48953;53.110;5.592;2022-07-29T05:05:24;14.70;1.00
62862;DHT22;48953;53.110;5.592;2022-07-29T05:07:49;14.80;1.00
62862;DHT22;48953;53.110;5.592;2022-07-29T05:10:15;14.90;1.00
62862;DHT22;48953;53.110;5.592;2022-07-29T05:12:40;15.00;1.00
62862;DHT22;48953;53.110;5.592;2022-07-29T05:15:06;15.10;1.00
62862;DHT22;48953;53.110;5.592;2022-07-29T05:17:32;15.30;1.00
62862;DHT22;48953;53.110;5.592;2022-07-29T05:19:57;15.40;1.00
62862;DHT22;48953;53.110;5.592;2022-07-29T05:22:23;15.50;1.00
62862;DHT22;48953;53.110;5.592;2022-07-29T05:24:48;15.70;1.00
62862;DHT22;48953;53.110;5.592;2022-07-29T05:27:14;15.60;1.00
62862;DHT22;48953;53.110;5.592;2022-07-29T05:29:40;15.90;1.00
62862;DHT22;48953;53.110;5.592;2022-07-29T05:32:05;16.30;1.00
62862;DHT22;48953;53.110;5.592;2022-07-29T05:34:32;16.90;1.00
62862;DHT22;48953;53.110;5.592;2022-07-29T05:36:58;17.50;1.00
62862;DHT22;48953;53.110;5.592;2022-07-29T05:39:24;17.50;1.00
62862;DHT22;48953;53.110;5.592;2022-07-29T05:41:50;18.90;99.90
62862;DHT22;48953;53.110;5.592;2022-07-29T05:44:15;19.20;99.90
62862;DHT22;48953;53.110;5.592;2022-07-29T05:46:41;18.50;99.90
62862;DHT22;48953;53.110;5.592;2022-07-29T05:49:06;18.60;99.90
62862;DHT22;48953;53.110;5.592;2022-07-29T05:51:36;19.20;99.90
62862;DHT22;48953;53.110;5.592;2022-07-29T05:54:01;19.50;99.90
62862;DHT22;48953;53.110;5.592;2022-07-29T05:56:27;19.80;99.90
62862;DHT22;48953;53.110;5.592;2022-07-29T05:58:53;20.60;99.90
62862;DHT22;48953;53.110;5.592;2022-07-29T06:01:19;21.60;99.90
62862;DHT22;48953;53.110;5.592;2022-07-29T06:03:45;22.90;99.90
62862;DHT22;48953;53.110;5.592;2022-07-29T06:06:11;23.70;99.90
62862;DHT22;48953;53.110;5.592;2022-07-29T06:08:36;22.40;99.90
62862;DHT22;48953;53.110;5.592;2022-07-29T06:11:03;22.60;99.90
62862;DHT22;48953;53.110;5.592;2022-07-29T06:13:29;25.70;99.90
62862;DHT22;48953;53.110;5.592;2022-07-29T06:15:55;24.90;99.90
62862;DHT22;48953;53.110;5.592;2022-07-29T06:18:20;23.00;99.90
62862;DHT22;48953;53.110;5.592;2022-07-29T06:20:55;21.50;99.90
62862;DHT22;48953;53.110;5.592;2022-07-29T06:23:21;21.30;99.90
62862;DHT22;48953;53.110;5.592;2022-07-29T06:25:47;20.70;99.90
62862;DHT22;48953;53.110;5.592;2022-07-29T06:28:12;20.70;99.90
62862;DHT22;48953;53.110;5.592;2022-07-29T06:30:39;21.00;99.90
62862;DHT22;48953;53.110;5.592;2022-07-29T06:33:04;20.60;99.90
62862;DHT22;48953;53.110;5.592;2022-07-29T06:35:32;20.40;99.90
62862;DHT22;48953;53.110;5.592;2022-07-29T06:37:58;20.80;99.90
62862;DHT22;48953;53.110;5.592;2022-07-29T06:40:24;20.30;99.90
62862;DHT22;48953;53.110;5.592;2022-07-29T06:43:08;20.40;99.90
62862;DHT22;48953;53.110;5.592;2022-07-29T06:45:34;20.60;99.90
62862;DHT22;48953;53.110;5.592;2022-07-29T06:47:59;20.90;99.90
62862;DHT22;48953;53.110;5.592;2022-07-29T06:50:25;21.10;99.90
62862;DHT22;48953;53.110;5.592;2022-07-29T06:52:51;21.70;99.90
62862;DHT22;48953;53.110;5.592;2022-07-29T06:55:16;21.70;99.90
62862;DHT22;48953;53.110;5.592;2022-07-29T06:57:44;20.90;99.90
62862;DHT22;48953;53.110;5.592;2022-07-29T07:00:10;20.50;99.90
62862;DHT22;48953;53.110;5.592;2022-07-29T07:02:36;20.10;99.90
62862;DHT22;48953;53.110;5.592;2022-07-29T07:05:02;19.90;99.90
62862;DHT22;48953;53.110;5.592;2022-07-29T07:07:28;19.90;99.90
62862;DHT22;48953;53.110;5.592;2022-07-29T07:09:53;19.70;99.90
62862;DHT22;48953;53.110;5.592;2022-07-29T07:12:19;19.60;99.90
62862;DHT22;48953;53.110;5.592;2022-07-29T07:14:45;19.60;99.90
62862;DHT22;48953;53.110;5.592;2022-07-29T07:17:10;19.60;99.90
62862;DHT22;48953;53.110;5.592;2022-07-29T07:19:36;19.60;99.90
62862;DHT22;48953;53.110;5.592;2022-07-29T07:22:01;19.60;99.90
62862;DHT22;48953;53.110;5.592;2022-07-29T07:24:27;19.80;99.90
62862;DHT22;48953;53.110;5.592;2022-07-29T07:26:53;19.40;99.90
62862;DHT22;48953;53.110;5.592;2022-07-29T07:29:18;19.50;99.90
62862;DHT22;48953;53.110;5.592;2022-07-29T07:31:44;19.50;99.90
62862;DHT22;48953;53.110;5.592;2022-07-29T07:34:10;19.60;99.90
62862;DHT22;48953;53.110;5.592;2022-07-29T07:36:36;19.50;99.90
62862;DHT22;48953;53.110;5.592;2022-07-29T07:39:02;19.50;99.90
62862;DHT22;48953;53.110;5.592;2022-07-29T07:41:28;19.10;99.90
62862;DHT22;48953;53.110;5.592;2022-07-29T07:43:54;19.10;99.90
62862;DHT22;48953;53.110;5.592;2022-07-29T07:46:20;19.20;99.90
62862;DHT22;48953;53.110;5.592;2022-07-29T07:48:45;19.30;99.90
62862;DHT22;48953;53.110;5.592;2022-07-29T07:51:11;19.30;99.90
62862;DHT22;48953;53.110;5.592;2022-07-29T07:53:37;19.40;99.90
62862;DHT22;48953;53.110;5.592;2022-07-29T07:56:02;19.60;99.90
62862;DHT22;48953;53.110;5.592;2022-07-29T07:58:29;19.70;99.90
62862;DHT22;48953;53.110;5.592;2022-07-29T08:00:55;19.70;99.90
62862;DHT22;48953;53.110;5.592;2022-07-29T08:03:20;19.80;99.90
62862;DHT22;48953;53.110;5.592;2022-07-29T08:05:46;20.00;99.90
62862;DHT22;48953;53.110;5.592;2022-07-29T08:08:13;20.30;99.90
62862;DHT22;48953;53.110;5.592;2022-07-29T08:10:39;21.00;99.90
62862;DHT22;48953;53.110;5.592;2022-07-29T08:13:25;21.50;99.90
62862;DHT22;48953;53.110;5.592;2022-07-29T08:15:53;22.00;99.90
62862;DHT22;48953;53.110;5.592;2022-07-29T08:18:28;21.60;99.90
62862;DHT22;48953;53.110;5.592;2022-07-29T08:20:54;21.60;99.90
62862;DHT22;48953;53.110;5.592;2022-07-29T08:23:20;21.40;99.90
62862;DHT22;48953;53.110;5.592;2022-07-29T08:25:46;21.40;99.90
62862;DHT22;48953;53.110;5.592;2022-07-29T08:28:12;21.10;99.90
62862;DHT22;48953;53.110;5.592;2022-07-29T08:30:37;20.90;99.90
62862;DHT22;48953;53.110;5.592;2022-07-29T08:33:03;21.10;99.90
62862;DHT22;48953;53.110;5.592;2022-07-29T08:35:29;21.20;99.90
62862;DHT22;48953;53.110;5.592;2022-07-29T08:37:54;20.90;99.90
62862;DHT22;48953;53.110;5.592;2022-07-29T08:40:22;20.80;99.90
62862;DHT22;48953;53.110;5.592;2022-07-29T08:42:49;20.80;99.90
62862;DHT22;48953;53.110;5.592;2022-07-29T08:45:15;20.70;99.90
62862;DHT22;48953;53.110;5.592;2022-07-29T08:47:41;21.00;99.90
62862;DHT22;48953;53.110;5.592;2022-07-29T08:50:09;21.00;99.90
62862;DHT22;48953;53.110;5.592;2022-07-29T08:52:38;20.80;99.90
62862;DHT22;48953;53.110;5.592;2022-07-29T08:55:05;20.90;99.90
62862;DHT22;48953;53.110;5.592;2022-07-29T08:57:33;20.60;99.90
62862;DHT22;48953;53.110;5.592;2022-07-29T09:00:00;20.70;99.90
62862;DHT22;48953;53.110;5.592;2022-07-29T09:02:30;20.70;99.90
62862;DHT22;48953;53.110;5.592;2022-07-29T09:05:00;20.60;99.90
62862;DHT22;48953;53.110;5.592;2022-07-29T09:07:26;20.50;99.90
62862;DHT22;48953;53.110;5.592;2022-07-29T09:09:52;20.60;99.90
62862;DHT22;48953;53.110;5.592;2022-07-29T09:12:18;20.30;99.90
62862;DHT22;48953;53.110;5.592;2022-07-29T09:14:43;20.10;99.90
62862;DHT22;48953;53.110;5.592;2022-07-29T09:17:09;20.10;99.90
62862;DHT22;48953;53.110;5.592;2022-07-29T09:19:36;20.30;99.90
62862;DHT22;48953;53.110;5.592;2022-07-29T09:22:04;20.40;99.90
62862;DHT22;48953;53.110;5.592;2022-07-29T09:24:45;20.20;99.90
62862;DHT22;48953;53.110;5.592;2022-07-29T09:27:20;20.40;99.90
62862;DHT22;48953;53.110;5.592;2022-07-29T09:29:58;20.30;99.90
62862;DHT22;48953;53.110;5.592;2022-07-29T09:32:24;20.20;99.90
62862;DHT22;48953;53.110;5.592;2022-07-29T09:34:49;20.20;99.90
62862;DHT22;48953;53.110;5.592;2022-07-29T09:37:28;20.20;99.90
62862;DHT22;48953;53.110;5.592;2022-07-29T09:39:55;20.20;99.90
62862;DHT22;48953;53.110;5.592;2022-07-29T09:42:30;20.00;99.90
62862;DHT22;48953;53.110;5.592;2022-07-29T09:44:57;20.20;99.90
62862;DHT22;48953;53.110;5.592;2022-07-29T09:47:49;20.00;99.90
62862;DHT22;48953;53.110;5.592;2022-07-29T09:50:15;20.10;99.90
62862;DHT22;48953;53.110;5.592;2022-07-29T09:52:46;20.10;99.90
62862;DHT22;48953;53.110;5.592;2022-07-29T09:55:12;20.40;99.90
62862;DHT22;48953;53.110;5.592;2022-07-29T09:57:38;20.40;99.90
62862;DHT22;48953;53.110;5.592;2022-07-29T10:00:09;20.40;99.90
62862;DHT22;48953;53.110;5.592;2022-07-29T10:02:37;20.20;99.90
62862;DHT22;48953;53.110;5.592;2022-07-29T10:05:05;20.00;99.90
62862;DHT22;48953;53.110;5.592;2022-07-29T10:07:56;20.10;99.90
62862;DHT22;48953;53.110;5.592;2022-07-29T10:10:28;20.30;99.90
62862;DHT22;48953;53.110;5.592;2022-07-29T10:12:56;20.30;99.90
62862;DHT22;48953;53.110;5.592;2022-07-29T10:15:24;20.40;99.90
62862;DHT22;48953;53.110;5.592;2022-07-29T10:17:51;20.30;99.90
62862;DHT22;48953;53.110;5.592;2022-07-29T10:20:17;20.40;99.90
62862;DHT22;48953;53.110;5.592;2022-07-29T10:22:43;20.40;99.90
62862;DHT22;48953;53.110;5.592;2022-07-29T10:25:09;20.60;99.90
62862;DHT22;48953;53.110;5.592;2022-07-29T10:27:36;20.70;99.90
62862;DHT22;48953;53.110;5.592;2022-07-29T10:30:03;20.80;99.90
62862;DHT22;48953;53.110;5.592;2022-07-29T10:32:40;21.00;99.90
62862;DHT22;48953;53.110;5.592;2022-07-29T10:43:55;22.30;99.90
62862;DHT22;48953;53.110;5.592;2022-07-29T10:46:22;22.50;99.90
62862;DHT22;48953;53.110;5.592;2022-07-29T10:49:11;22.60;99.90
62862;DHT22;48953;53.110;5.592;2022-07-29T10:51:57;22.40;99.90
62862;DHT22;48953;53.110;5.592;2022-07-29T10:57:29;22.40;99.90
62862;DHT22;48953;53.110;5.592;2022-07-29T11:05:05;22.30;99.90
62862;DHT22;48953;53.110;5.592;2022-07-29T11:07:33;22.10;99.90
62862;DHT22;48953;53.110;5.592;2022-07-29T11:15:12;22.00;99.90
62862;DHT22;48953;53.110;5.592;2022-07-29T11:18:03;22.00;99.90
62862;DHT22;48953;53.110;5.592;2022-07-29T11:20:44;22.00;99.90
62862;DHT22;48953;53.110;5.592;2022-07-29T11:23:19;22.10;99.90
62862;DHT22;48953;53.110;5.592;2022-07-29T11:25:46;21.90;99.90
62862;DHT22;48953;53.110;5.592;2022-07-29T11:28:32;22.30;99.90
62862;DHT22;48953;53.110;5.592;2022-07-29T11:30:59;22.50;99.90
62862;DHT22;48953;53.110;5.592;2022-07-29T11:33:33;22.40;99.90
62862;DHT22;48953;53.110;5.592;2022-07-29T11:38:35;22.50;99.90
62862;DHT22;48953;53.110;5.592;2022-07-29T11:43:52;22.30;99.90
62862;DHT22;48953;53.110;5.592;2022-07-29T11:46:45;22.30;99.90
62862;DHT22;48953;53.110;5.592;2022-07-29T11:49:25;22.50;99.90
62862;DHT22;48953;53.110;5.592;2022-07-29T11:51:53;22.60;99.90
62862;DHT22;48953;53.110;5.592;2022-07-29T11:54:25;22.90;99.90
62862;DHT22;48953;53.110;5.592;2022-07-29T11:56:52;22.80;99.90
62862;DHT22;48953;53.110;5.592;2022-07-29T11:59:21;22.90;99.90
62862;DHT22;48953;53.110;5.592;2022-07-29T12:01:54;22.70;99.90
62862;DHT22;48953;53.110;5.592;2022-07-29T12:04:19;23.00;99.90
62862;DHT22;48953;53.110;5.592;2022-07-29T12:06:52;23.00;99.90
62862;DHT22;48953;53.110;5.592;2022-07-29T12:09:19;22.90;99.90
62862;DHT22;48953;53.110;5.592;2022-07-29T12:11:45;23.00;99.90
62862;DHT22;48953;53.110;5.592;2022-07-29T12:14:28;23.00;99.90
62862;DHT22;48953;53.110;5.592;2022-07-29T12:16:54;23.10;99.90
62862;DHT22;48953;53.110;5.592;2022-07-29T12:19:19;23.20;99.90
62862;DHT22;48953;53.110;5.592;2022-07-29T12:21:46;23.30;99.90
62862;DHT22;48953;53.110;5.592;2022-07-29T12:24:12;23.30;99.90
62862;DHT22;48953;53.110;5.592;2022-07-29T12:26:52;23.30;99.90
62862;DHT22;48953;53.110;5.592;2022-07-29T12:29:18;23.40;99.90
62862;DHT22;48953;53.110;5.592;2022-07-29T12:31:44;23.70;99.90
62862;DHT22;48953;53.110;5.592;2022-07-29T12:34:15;23.50;99.90
62862;DHT22;48953;53.110;5.592;2022-07-29T12:36:41;23.50;99.90
62862;DHT22;48953;53.110;5.592;2022-07-29T12:39:08;23.40;99.90
62862;DHT22;48953;53.110;5.592;2022-07-29T12:41:35;23.40;99.90
62862;DHT22;48953;53.110;5.592;2022-07-29T12:44:00;23.60;99.90
62862;DHT22;48953;53.110;5.592;2022-07-29T12:46:26;23.40;99.90
62862;DHT22;48953;53.110;5.592;2022-07-29T12:48:53;23.60;99.90
62862;DHT22;48953;53.110;5.592;2022-07-29T12:51:30;23.70;99.90
62862;DHT22;48953;53.110;5.592;2022-07-29T12:54:09;23.90;99.90
62862;DHT22;48953;53.110;5.592;2022-07-29T12:56:43;24.10;99.90
62862;DHT22;48953;53.110;5.592;2022-07-29T12:59:19;24.30;99.90
62862;DHT22;48953;53.110;5.592;2022-07-29T13:01:46;24.90;99.90
62862;DHT22;48953;53.110;5.592;2022-07-29T13:04:28;25.00;99.90
62862;DHT22;48953;53.110;5.592;2022-07-29T13:07:07;26.00;99.90
62862;DHT22;48953;53.110;5.592;2022-07-29T13:09:38;25.90;99.90
62862;DHT22;48953;53.110;5.592;2022-07-29T13:12:12;25.50;99.90
62862;DHT22;48953;53.110;5.592;2022-07-29T13:14:42;25.90;99.90
62862;DHT22;48953;53.110;5.592;2022-07-29T13:17:20;26.40;99.90
62862;DHT22;48953;53.110;5.592;2022-07-29T13:19:51;26.30;99.90
62862;DHT22;48953;53.110;5.592;2022-07-29T13:22:21;26.70;99.90
62862;DHT22;48953;53.110;5.592;2022-07-29T13:24:51;26.70;99.90
62862;DHT22;48953;53.110;5.592;2022-07-29T13:27:21;26.50;99.90
62862;DHT22;48953;53.110;5.592;2022-07-29T13:29:48;26.70;99.90
62862;DHT22;48953;53.110;5.592;2022-07-29T13:32:16;26.10;99.90
62862;DHT22;48953;53.110;5.592;2022-07-29T13:34:42;25.70;99.90
62862;DHT22;48953;53.110;5.592;2022-07-29T13:37:07;25.30;99.90
62862;DHT22;48953;53.110;5.592;2022-07-29T13:39:33;25.40;99.90
62862;DHT22;48953;53.110;5.592;2022-07-29T13:41:58;25.80;99.90
62862;DHT22;48953;53.110;5.592;2022-07-29T13:44:24;25.50;99.90
62862;DHT22;48953;53.110;5.592;2022-07-29T13:46:50;25.70;99.90
62862;DHT22;48953;53.110;5.592;2022-07-29T13:49:16;25.50;99.90
62862;DHT22;48953;53.110;5.592;2022-07-29T13:51:41;25.00;99.90
62862;DHT22;48953;53.110;5.592;2022-07-29T13:54:07;25.30;99.90
62862;DHT22;48953;53.110;5.592;2022-07-29T13:56:33;26.10;99.90
62862;DHT22;48953;53.110;5.592;2022-07-29T13:58:59;26.40;99.90
62862;DHT22;48953;53.110;5.592;2022-07-29T14:01:26;26.50;99.90
62862;DHT22;48953;53.110;5.592;2022-07-29T14:03:52;26.00;99.90
62862;DHT22;48953;53.110;5.592;2022-07-29T14:06:18;26.10;99.90
62862;DHT22;48953;53.110;5.592;2022-07-29T14:08:44;25.60;99.90
62862;DHT22;48953;53.110;5.592;2022-07-29T14:11:10;25.90;99.90
62862;DHT22;48953;53.110;5.592;2022-07-29T14:13:35;25.80;99.90
62862;DHT22;48953;53.110;5.592;2022-07-29T14:16:01;25.80;99.90
62862;DHT22;48953;53.110;5.592;2022-07-29T14:18:26;26.00;99.90
62862;DHT22;48953;53.110;5.592;2022-07-29T14:20:52;25.90;99.90
62862;DHT22;48953;53.110;5.592;2022-07-29T14:23:18;25.30;99.90
62862;DHT22;48953;53.110;5.592;2022-07-29T14:25:44;26.20;99.90
62862;DHT22;48953;53.110;5.592;2022-07-29T14:28:09;26.40;99.90
62862;DHT22;48953;53.110;5.592;2022-07-29T14:30:35;26.20;99.90
62862;DHT22;48953;53.110;5.592;2022-07-29T14:33:00;25.80;99.90
62862;DHT22;48953;53.110;5.592;2022-07-29T14:35:26;26.10;99.90
62862;DHT22;48953;53.110;5.592;2022-07-29T14:37:52;26.40;99.90
62862;DHT22;48953;53.110;5.592;2022-07-29T14:40:17;26.50;99.90
62862;DHT22;48953;53.110;5.592;2022-07-29T14:42:43;26.30;99.90
62862;DHT22;48953;53.110;5.592;2022-07-29T14:45:09;26.50;99.90
62862;DHT22;48953;53.110;5.592;2022-07-29T14:47:35;26.90;99.90
62862;DHT22;48953;53.110;5.592;2022-07-29T14:50:01;26.10;99.90
62862;DHT22;48953;53.110;5.592;2022-07-29T14:52:27;25.60;99.90
62862;DHT22;48953;53.110;5.592;2022-07-29T14:54:52;25.50;99.90
62862;DHT22;48953;53.110;5.592;2022-07-29T14:57:18;25.10;99.90
62862;DHT22;48953;53.110;5.592;2022-07-29T14:59:44;24.90;99.90
62862;DHT22;48953;53.110;5.592;2022-07-29T15:02:09;25.50;99.90
62862;DHT22;48953;53.110;5.592;2022-07-29T15:04:35;25.70;99.90
62862;DHT22;48953;53.110;5.592;2022-07-29T15:07:00;25.80;99.90
62862;DHT22;48953;53.110;5.592;2022-07-29T15:09:26;25.90;99.90
62862;DHT22;48953;53.110;5.592;2022-07-29T15:11:51;25.60;99.90
62862;DHT22;48953;53.110;5.592;2022-07-29T15:14:17;25.60;99.90
62862;DHT22;48953;53.110;5.592;2022-07-29T15:16:43;25.60;99.90
62862;DHT22;48953;53.110;5.592;2022-07-29T15:19:09;25.20;99.90
62862;DHT22;48953;53.110;5.592;2022-07-29T15:21:35;25.50;99.90
62862;DHT22;48953;53.110;5.592;2022-07-29T15:24:01;25.30;99.90
62862;DHT22;48953;53.110;5.592;2022-07-29T15:26:26;25.50;99.90
62862;DHT22;48953;53.110;5.592;2022-07-29T15:28:52;25.20;99.90
62862;DHT22;48953;53.110;5.592;2022-07-29T15:31:18;25.30;99.90
62862;DHT22;48953;53.110;5.592;2022-07-29T15:33:44;25.50;99.90
62862;DHT22;48953;53.110;5.592;2022-07-29T15:36:10;25.20;99.90
62862;DHT22;48953;53.110;5.592;2022-07-29T15:38:37;25.20;99.90
62862;DHT22;48953;53.110;5.592;2022-07-29T15:41:03;25.10;99.90
62862;DHT22;48953;53.110;5.592;2022-07-29T15:43:29;24.60;99.90
62862;DHT22;48953;53.110;5.592;2022-07-29T15:45:54;24.40;99.90
62862;DHT22;48953;53.110;5.592;2022-07-29T15:48:39;24.00;99.90
62862;DHT22;48953;53.110;5.592;2022-07-29T15:51:05;24.10;99.90
62862;DHT22;48953;53.110;5.592;2022-07-29T15:53:30;24.20;99.90
62862;DHT22;48953;53.110;5.592;2022-07-29T15:55:56;24.20;99.90
62862;DHT22;48953;53.110;5.592;2022-07-29T15:58:21;24.40;99.90
62862;DHT22;48953;53.110;5.592;2022-07-29T16:00:47;24.00;99.90
62862;DHT22;48953;53.110;5.592;2022-07-29T16:03:13;24.00;99.90
62862;DHT22;48953;53.110;5.592;2022-07-29T16:05:48;24.20;99.90
62862;DHT22;48953;53.110;5.592;2022-07-29T16:08:14;24.30;99.90
62862;DHT22;48953;53.110;5.592;2022-07-29T16:10:39;24.20;99.90
62862;DHT22;48953;53.110;5.592;2022-07-29T16:13:05;23.90;99.90
62862;DHT22;48953;53.110;5.592;2022-07-29T16:15:31;23.80;99.90
62862;DHT22;48953;53.110;5.592;2022-07-29T16:17:57;23.80;99.90